Deal, New Jersey
Current Conditions -  °F | °C
As of 9:35 AM on Friday 28 Nov 2014 (Local Time) from KBLM Reporting Station
Few Clouds Few Clouds  
Wind Chill: 26°   Ceiling: Unl
Heat Index: 36°   Visibility: 10mi
Dew Point: 21°   Wind: 15mph
Humidity: 56%   Direction: 320°NW
Pressure: 30.19"   Gusts: 23mph
Location:  40.24°N, 74°W
Report Text: KBLM 281435Z AUTO 32013G20KT 290V350 10SM FEW027 02/M06 A3019 RMK AO1
Loading
Personal Weather Stations






























Interactive Weather Map New forecast layout! Learn more

10-Day Weather Forecast

Advertisements
Track Severe Weather on mobile